Terminal Aerodrome Forecast
Issued by NWS Sterling, VA

Home | Current Version | Previous Version | Text Only | Print | Product List | Glossary On
Versions: 1 2 3 4 5 6 7 8 9 10 11 12 13 14
000
FTUS41 KLWX 152300
TAFCHO
TAF
KCHO 152338Z 1600/1624 17006KT P6SM BKN150
     FM160700 00000KT 5SM BR BKN050
     FM161200 00000KT P6SM BKN050
     FM161400 33006KT P6SM BKN050
     FM161700 34005KT P6SM SCT050=

USA.gov is the U.S. government's official web portal to all federal, state and local government web resources and services.